Terminal Aerodrome Forecast
Issued by NWS Binghamton, NY

Home | Current Version | Previous Version | Text Only | Print | Product List | Glossary On
Versions: 1 2 3 4 5 6 7 8 9 10 11 12 13 14 15 16
208
FTUS41 KBGM 251738
TAFAVP
TAF
KAVP 251738Z 2518/2618 04004KT P6SM OVC015
     FM252100 VRB03KT 4SM -SHRA BR OVC008
     FM260100 33005KT 3SM -SHRA BR OVC007
     FM260400 30008KT P6SM OVC012
     FM261200 28012G20KT P6SM BKN025 OVC040=

USA.gov is the U.S. government's official web portal to all federal, state and local government web resources and services.